KLHM/LHM METAR and TAF weather

Enter ICAO airport designator
Station Type Date Time Source
KLHM METAR 2020/09/21 09:35 UTC NOAA

KLHM 210935Z AUTO 00000KT 10SM CLR 16/08 A2983 RMK AO1


Station Type Date Time Source
KLHM Decoded METAR 2020/09/21 09:35 UTC NOAA

Station name not available
Sep 21, 2020 - 05:35 AM EDT / 2020.09.21 0935 UTC
Wind: Calm:0
Visibility: 10 mile(s):0
Sky conditions: clear
Temperature: 60 F (16 C)
Dew Point: 46 F (8 C)
Relative Humidity: 58%
Pressure (altimeter): 29.83 in. Hg (1010 hPa)
ob: KLHM 210935Z AUTO 00000KT 10SM CLR 16/08 A2983 RMK AO1
cycle: 9

Station Type Date Time Source
KLHM TAF UTC NOAA

Error!

Example: see airport list